Time;durP1;ratioP1;P1;durP2;ratioP2;P2;SDS_P1;SDS_P2;PMS_P1;PMS_P2;Temp;Humidity;BMP_temperature;BMP_pressure;BME280_temperature;BME280_humidity;BME280_pressure;Samples;Min_cycle;Max_cycle;Signal;HPM_P1;HPM_P2
2021/01/20 14:59:13;;;;;;;3.42;2.30;;;9.80;99.90;;;;;;4994172;28;20196;-84
2021/01/20 15:01:52;;;;;;;2.78;2.55;;;9.70;99.90;;;;;;4962646;28;20215;-86
2021/01/20 15:04:39;;;;;;;4.77;2.83;;;9.70;99.90;;;;;;4962806;28;20218;-84
2021/01/20 15:07:15;;;;;;;4.83;2.80;;;9.70;99.90;;;;;;4949201;28;20229;-85
2021/01/20 15:09:52;;;;;;;3.22;2.92;;;9.60;99.90;;;;;;4996486;28;20209;-85
2021/01/20 16:52:05;;;;;;;4.40;3.27;;;8.90;99.90;;;;;;4900573;29;20285;-83
2021/01/20 16:59:11;;;;;;;4.13;2.90;;;9.00;99.90;;;;;;4948068;29;20222;-83
2021/01/20 17:02:13;;;;;;;6.47;3.30;;;8.90;99.90;;;;;;4942290;29;20293;-82
2021/01/20 17:26:03;;;;;;;5.90;3.30;;;8.70;99.90;;;;;;4788156;29;20226;-83
2021/01/20 17:29:19;;;;;;;3.43;3.13;;;8.80;99.90;;;;;;4836329;29;20295;-82
2021/01/20 17:32:16;;;;;;;4.50;2.97;;;8.90;99.90;;;;;;4898463;29;20816;-83
2021/01/20 18:09:00;;;;;;;4.85;3.10;;;8.70;99.90;;;;;;4942772;29;20501;-82
2021/01/20 18:11:41;;;;;;;;;;;;;;;;;;;;;
2021/01/20 18:17:37;;;;;;;3.37;2.73;;;8.60;99.90;;;;;;4925366;29;20259;-82
2021/01/20 18:20:23;;;;;;;4.73;3.30;;;8.70;99.90;;;;;;4940792;29;20219;-82
2021/01/20 18:22:53;;;;;;;3.83;2.63;;;8.70;99.90;;;;;;4917549;29;20214;-83
2021/01/20 18:25:24;;;;;;;4.13;3.47;;;8.70;99.90;;;;;;4906231;29;20261;-82
2021/01/20 18:28:05;;;;;;;3.40;2.80;;;8.70;99.90;;;;;;4914297;29;20254;-82
2021/01/20 18:30:46;;;;;;;4.17;2.80;;;8.70;99.90;;;;;;4921049;29;20231;-82
2021/01/20 18:33:27;;;;;;;4.47;3.37;;;8.70;99.90;;;;;;4938890;29;20208;-82
2021/01/20 18:36:01;;;;;;;4.88;3.75;;;8.40;99.90;;;;;;4928806;29;20601;-82
2021/01/20 18:38:47;;;;;;;3.47;3.00;;;8.60;99.90;;;;;;4908724;29;20214;-83
2021/01/20 18:41:15;;;;;;;4.30;3.50;;;8.70;99.90;;;;;;4907245;29;20252;-82
2021/01/20 18:43:47;;;;;;;5.75;3.33;;;8.70;99.90;;;;;;4907830;29;20224;-83
2021/01/20 18:46:21;;;;;;;5.60;3.40;;;8.70;99.90;;;;;;4911639;29;20227;-83
2021/01/20 18:48:52;;;;;;;3.10;2.87;;;8.80;99.90;;;;;;4909163;29;20215;-83
2021/01/20 18:51:23;;;;;;;4.90;2.57;;;8.80;99.90;;;;;;4926485;29;20235;-80
2021/01/20 18:54:09;;;;;;;2.70;2.47;;;8.80;99.90;;;;;;4924531;29;20250;-81
2021/01/20 18:57:08;;;;;;;5.17;3.20;;;8.80;99.90;;;;;;4907749;29;20242;-81
2021/01/20 18:59:37;;;;;;;2.90;2.37;;;8.90;99.90;;;;;;4922445;29;20204;-80
2021/01/20 19:02:22;;;;;;;4.60;3.00;;;8.90;99.90;;;;;;4914045;29;20722;-81
2021/01/20 19:08:08;;;;;;;5.23;2.47;;;8.90;99.90;;;;;;4926226;29;20227;-81
2021/01/20 19:11:28;;;;;;;5.00;2.33;;;9.00;99.90;;;;;;4932427;29;20317;-81
2021/01/20 19:14:22;;;;;;;4.63;2.60;;;9.00;99.90;;;;;;4910481;29;20220;-82
2021/01/20 19:17:05;;;;;;;8.97;3.90;;;8.90;99.90;;;;;;4926319;29;20298;-82
2021/01/20 19:20:22;;;;;;;5.03;2.77;;;9.00;99.90;;;;;;4952014;28;20241;-82
2021/01/20 19:23:08;;;;;;;4.57;2.70;;;9.00;99.90;;;;;;4915305;29;20223;-82
2021/01/20 19:26:00;;;;;;;3.40;2.17;;;8.90;99.90;;;;;;4916036;29;20222;-82
2021/01/20 19:29:00;;;;;;;3.47;2.70;;;8.80;99.90;;;;;;4922117;29;20220;-82
2021/01/20 19:31:55;;;;;;;3.07;2.47;;;8.80;99.90;;;;;;4912994;29;20576;-82
2021/01/20 19:34:32;;;;;;;5.03;2.30;;;8.90;99.90;;;;;;4931416;29;20234;-82
2021/01/20 19:37:16;;;;;;;3.23;2.20;;;9.10;99.90;;;;;;4916892;29;20219;-82
2021/01/20 19:39:58;;;;;;;2.67;2.43;;;9.20;99.90;;;;;;4920099;29;20282;-82
2021/01/20 19:42:25;;;;;;;5.73;2.33;;;9.20;99.90;;;;;;4943655;29;20211;-81
2021/01/20 19:45:04;;;;;;;3.80;2.13;;;9.30;99.90;;;;;;4918977;29;20224;-80
2021/01/20 19:47:49;;;;;;;5.23;2.40;;;9.30;99.90;;;;;;4917446;29;20246;-82
2021/01/20 19:50:33;;;;;;;3.83;2.23;;;9.30;99.90;;;;;;4923133;29;20290;-82
2021/01/20 19:53:05;;;;;;;2.67;2.20;;;9.20;99.90;;;;;;4917544;29;20277;-82
2021/01/20 19:55:34;;;;;;;4.13;1.80;;;9.20;99.90;;;;;;4917750;29;20229;-82
2021/01/20 19:58:04;;;;;;;2.10;1.90;;;9.20;99.90;;;;;;4931643;29;20224;-82
2021/01/20 20:00:41;;;;;;;4.43;3.23;;;9.30;99.90;;;;;;4904243;29;20226;-83
2021/01/20 20:03:29;;;;;;;4.03;2.17;;;9.20;99.90;;;;;;4911978;29;20306;-83
2021/01/20 20:06:08;;;;;;;5.27;2.93;;;9.20;99.90;;;;;;4935819;29;20219;-83
2021/01/20 20:08:56;;;;;;;3.53;2.20;;;9.20;99.90;;;;;;4919225;29;20184;-83
2021/01/20 20:11:27;;;;;;;5.67;2.33;;;9.30;99.90;;;;;;4922003;29;20327;-83
2021/01/20 20:14:27;;;;;;;3.33;1.90;;;9.20;99.90;;;;;;4898283;29;20223;-83
2021/01/20 20:17:00;;;;;;;4.50;2.83;;;9.20;99.90;;;;;;4906958;29;20246;-83
2021/01/20 20:19:28;;;;;;;5.10;2.50;;;9.20;99.90;;;;;;4928595;29;20227;-83
2021/01/20 20:21:55;;;;;;;3.70;2.40;;;9.20;99.90;;;;;;4945500;29;20371;-82
2021/01/20 20:24:23;;;;;;;3.55;2.70;;;9.20;99.90;;;;;;4925962;29;20607;-83
2021/01/20 20:26:50;;;;;;;4.47;2.10;;;9.20;99.90;;;;;;4909887;29;20212;-83
2021/01/20 20:29:17;;;;;;;5.67;2.50;;;9.20;99.90;;;;;;4924966;29;20216;-82
2021/01/20 20:31:45;;;;;;;4.60;1.98;;;9.20;99.90;;;;;;4909322;29;20232;-81
2021/01/20 20:34:12;;;;;;;5.47;1.70;;;9.30;99.90;;;;;;4915714;29;20247;-83
2021/01/20 20:36:41;;;;;;;3.93;2.00;;;9.30;99.90;;;;;;4912497;29;20236;-83
2021/01/20 20:39:08;;;;;;;2.30;2.10;;;9.30;99.90;;;;;;4901338;29;20688;-83
2021/01/20 20:41:36;;;;;;;3.43;1.97;;;9.20;99.90;;;;;;4899094;29;20246;-84
2021/01/20 20:44:05;;;;;;;5.20;2.47;;;9.20;99.90;;;;;;4929209;29;20215;-82
2021/01/20 20:46:32;;;;;;;3.87;2.17;;;9.20;99.90;;;;;;4947329;29;20724;-82
2021/01/20 20:49:00;;;;;;;4.37;2.83;;;9.30;99.90;;;;;;4946349;29;20242;-82
2021/01/20 20:51:27;;;;;;;4.37;2.23;;;9.30;99.90;;;;;;4928974;29;20246;-81
2021/01/20 20:53:56;;;;;;;2.67;2.20;;;9.30;99.90;;;;;;4945772;29;20220;-83
2021/01/20 20:56:23;;;;;;;2.17;1.97;;;9.30;99.90;;;;;;4943800;29;20295;-82
2021/01/20 20:58:51;;;;;;;3.90;2.33;;;9.40;99.90;;;;;;4944197;29;20246;-83
2021/01/20 21:01:18;;;;;;;2.33;1.87;;;9.30;99.90;;;;;;4943652;29;20219;-82
2021/01/20 21:11:06;;;;;;;3.47;1.83;;;9.50;99.90;;;;;;4917247;29;20307;-76
2021/01/20 21:13:35;;;;;;;5.10;2.47;;;9.50;99.90;;;;;;4896844;29;20372;-77
2021/01/20 21:16:28;;;;;;;3.03;2.57;;;9.50;99.90;;;;;;4929672;29;20236;-77
2021/01/20 21:19:09;;;;;;;4.60;2.43;;;9.50;99.90;;;;;;4896986;29;20219;-77
2021/01/20 21:22:08;;;;;;;4.63;2.67;;;9.40;99.90;;;;;;4928842;29;20576;-75
2021/01/20 21:24:56;;;;;;;4.25;2.40;;;9.40;99.90;;;;;;4918156;29;20516;-75
2021/01/20 21:27:44;;;;;;;3.73;2.20;;;9.50;99.90;;;;;;4919825;29;20282;-77
2021/01/20 21:31:06;;;;;;;4.53;2.15;;;9.50;99.90;;;;;;4923571;29;20733;-81
2021/01/20 21:35:03;;;;;;;6.03;2.00;;;9.50;99.90;;;;;;4890767;29;20715;-84
2021/01/20 21:38:16;;;;;;;4.80;1.97;;;9.60;99.90;;;;;;5021042;23;20268;-85
2021/01/20 21:40:44;;;;;;;3.73;1.70;;;9.60;99.90;;;;;;4942969;29;20264;-83
2021/01/20 21:43:10;;;;;;;2.23;1.70;;;9.80;99.90;;;;;;4952632;29;20233;-83
2021/01/20 21:45:46;;;;;;;3.97;1.63;;;9.80;99.90;;;;;;4945808;29;20231;-88
2021/01/20 21:49:05;;;;;;;2.50;2.00;;;9.70;99.90;;;;;;4905683;29;20227;-86
2021/01/20 21:51:59;;;;;;;5.63;2.13;;;9.70;99.90;;;;;;4942156;29;20314;-87
2021/01/20 21:54:39;;;;;;;4.03;1.67;;;9.60;99.90;;;;;;4941552;29;20571;-86
2021/01/20 21:57:11;;;;;;;4.57;2.30;;;9.60;99.90;;;;;;4924135;29;20237;-87
2021/01/20 21:59:41;;;;;;;3.33;2.10;;;9.60;99.90;;;;;;4939941;29;20303;-88
2021/01/20 22:02:08;;;;;;;2.83;1.88;;;9.40;99.90;;;;;;4924530;29;20235;-86
2021/01/20 22:04:38;;;;;;;4.25;1.90;;;9.30;99.90;;;;;;4909237;29;20230;-86
2021/01/20 22:07:05;;;;;;;3.27;1.90;;;9.10;99.90;;;;;;4924990;29;20237;-86
2021/01/20 22:09:34;;;;;;;2.25;1.80;;;8.90;99.90;;;;;;4908231;29;20258;-87
2021/01/20 22:12:01;;;;;;;5.07;2.30;;;8.90;99.90;;;;;;4907549;29;20318;-87
2021/01/20 22:14:28;;;;;;;3.50;2.10;;;8.80;99.90;;;;;;4923925;29;20226;-85
2021/01/20 22:16:55;;;;;;;3.93;2.27;;;8.80;99.90;;;;;;4940613;29;20259;-86
2021/01/20 22:19:22;;;;;;;2.07;1.80;;;8.70;99.90;;;;;;4907493;29;20209;-86
2021/01/20 22:21:50;;;;;;;4.47;2.53;;;8.70;99.90;;;;;;4924237;29;20318;-86
2021/01/20 22:24:18;;;;;;;2.33;2.00;;;8.70;99.90;;;;;;4941346;29;20231;-85
2021/01/20 22:26:45;;;;;;;3.73;2.83;;;8.70;99.90;;;;;;4941415;29;20227;-86
2021/01/20 22:29:12;;;;;;;2.27;2.00;;;8.50;99.90;;;;;;4924336;29;20249;-86
2021/01/20 22:31:39;;;;;;;5.17;2.37;;;8.40;99.90;;;;;;4927839;29;20235;-87
2021/01/20 22:34:06;;;;;;;3.13;2.43;;;8.40;99.90;;;;;;4921478;29;20238;-87
2021/01/20 22:36:33;;;;;;;2.73;2.10;;;8.50;99.90;;;;;;4937964;29;20231;-87
2021/01/20 22:39:06;;;;;;;1.90;1.70;;;8.50;99.90;;;;;;4954183;29;20211;-86
2021/01/20 22:41:34;;;;;;;3.77;1.77;;;8.50;99.90;;;;;;4937910;29;20325;-87
2021/01/20 22:44:01;;;;;;;2.43;2.03;;;8.60;99.90;;;;;;4931633;29;20226;-86
2021/01/20 22:49:22;;;;;;;1.95;1.80;;;8.60;99.90;;;;;;5064711;23;20203;31
2021/01/20 22:51:52;;;;;;;3.27;2.10;;;8.60;99.90;;;;;;4908538;29;20480;-87
2021/01/20 22:54:19;;;;;;;5.13;2.57;;;8.50;99.90;;;;;;4903613;29;20219;-86
2021/01/20 22:56:51;;;;;;;2.40;2.20;;;8.40;99.90;;;;;;4920521;29;20251;-85
2021/01/20 22:59:19;;;;;;;2.80;1.67;;;8.40;99.90;;;;;;4915517;29;20216;-84
2021/01/20 23:01:49;;;;;;;6.53;2.50;;;8.30;99.90;;;;;;4920329;29;20235;-83
2021/01/20 23:04:24;;;;;;;4.63;2.30;;;8.30;99.90;;;;;;4894250;29;20242;-84
2021/01/20 23:06:55;;;;;;;4.27;2.20;;;8.00;99.90;;;;;;4895177;29;20232;-85
2021/01/20 23:09:26;;;;;;;3.40;2.30;;;8.10;99.90;;;;;;4919869;29;20227;-85
2021/01/20 23:11:54;;;;;;;2.83;2.60;;;8.10;99.90;;;;;;4902150;29;20585;-85
2021/01/20 23:14:21;;;;;;;2.50;2.30;;;8.00;99.90;;;;;;4891579;29;20327;-85
2021/01/20 23:16:49;;;;;;;2.20;1.92;;;8.00;99.90;;;;;;4906158;29;20233;-86
2021/01/20 23:19:17;;;;;;;2.73;2.00;;;7.80;99.90;;;;;;4885850;29;20315;-85
2021/01/20 23:21:58;;;;;;;3.35;2.45;;;7.80;99.90;;;;;;4903028;29;20235;-85
2021/01/20 23:24:29;;;;;;;4.67;2.83;;;8.00;99.90;;;;;;4901672;29;20216;-85
2021/01/20 23:26:57;;;;;;;4.03;2.20;;;8.10;99.90;;;;;;4887581;29;20256;-86
2021/01/20 23:29:24;;;;;;;4.67;2.50;;;7.90;99.90;;;;;;4869660;29;20228;-86
2021/01/20 23:31:58;;;;;;;5.50;2.73;;;7.90;99.90;;;;;;4901363;29;20284;-86
2021/01/20 23:34:30;;;;;;;2.90;2.17;;;7.70;99.90;;;;;;4902957;29;20645;-85
2021/01/20 23:37:02;;;;;;;4.13;2.00;;;7.80;99.90;;;;;;4904186;29;20778;-86
2021/01/20 23:39:33;;;;;;;7.03;2.47;;;7.80;99.90;;;;;;4890224;29;20298;-86
2021/01/20 23:42:02;;;;;;;2.63;2.43;;;7.80;99.90;;;;;;4905716;29;20301;-85
2021/01/20 23:44:36;;;;;;;4.50;2.60;;;8.00;99.90;;;;;;4921253;29;20339;-85
2021/01/20 23:47:06;;;;;;;2.47;2.15;;;8.10;99.90;;;;;;4906881;29;20239;-85
2021/01/20 23:49:34;;;;;;;3.05;1.92;;;8.10;99.90;;;;;;4906630;29;20242;-86
2021/01/20 23:52:01;;;;;;;2.10;1.80;;;8.10;99.90;;;;;;4889238;29;20239;-84
2021/01/20 23:54:29;;;;;;;2.70;2.03;;;8.20;99.90;;;;;;4902627;29;20209;-85
2021/01/20 23:56:56;;;;;;;5.20;2.10;;;8.30;99.90;;;;;;4891445;29;20224;-88
2021/01/20 23:59:24;;;;;;;3.33;2.37;;;8.40;99.90;;;;;;4882244;29;20243;-87
